Time;durP1;ratioP1;P1;durP2;ratioP2;P2;SDS_P1;SDS_P2;PMS_P1;PMS_P2;Temp;Humidity;BMP_temperature;BMP_pressure;BME280_temperature;BME280_humidity;BME280_pressure;Samples;Min_cycle;Max_cycle;Signal;HPM_P1;HPM_P2
2021/12/25 00:01:25;;;;;;;41.77;7.70;;;;;;;5.23;100.00;96733.50;5110604;28;20605;-74
2021/12/25 00:03:54;;;;;;;35.83;7.23;;;;;;;5.20;100.00;96737.44;5101980;28;20609;-74
2021/12/25 00:06:21;;;;;;;53.07;8.50;;;;;;;5.22;100.00;96743.28;5100456;28;20632;-73
2021/12/25 00:08:48;;;;;;;36.40;6.90;;;;;;;5.16;100.00;96746.97;5109805;28;20642;-74
2021/12/25 00:11:15;;;;;;;43.90;7.73;;;;;;;5.19;100.00;96754.38;5103016;28;20589;-75
2021/12/25 00:13:43;;;;;;;75.10;10.57;;;;;;;5.12;100.00;96751.16;5102217;28;20605;-74
2021/12/25 00:16:10;;;;;;;28.53;7.60;;;;;;;5.27;100.00;96745.13;5101832;28;20651;-74
2021/12/25 00:18:39;;;;;;;63.80;9.90;;;;;;;5.19;100.00;96749.09;5110911;28;20639;-74
2021/12/25 00:21:08;;;;;;;41.47;8.40;;;;;;;5.35;100.00;96756.03;5109546;28;20615;-74
2021/12/25 00:23:34;;;;;;;44.93;8.43;;;;;;;5.22;100.00;96761.00;5118417;28;20703;-74
2021/12/25 00:26:05;;;;;;;55.20;9.83;;;;;;;5.45;100.00;96752.63;5105851;28;20637;-73
2021/12/25 00:28:50;;;;;;;60.30;10.83;;;;;;;5.48;100.00;96751.34;5113439;28;20634;-73
2021/12/25 00:31:42;;;;;;;78.73;12.83;;;;;;;5.65;100.00;96749.28;5110183;28;20596;-73
2021/12/25 00:34:13;;;;;;;50.33;12.97;;;;;;;5.79;100.00;96753.81;5101668;28;20818;-73
2021/12/25 00:36:40;;;;;;;103.77;16.20;;;;;;;5.83;100.00;96756.75;5109705;28;20616;-73
2021/12/25 00:39:07;;;;;;;74.43;12.00;;;;;;;5.79;100.00;96753.03;5108995;28;20609;-74
2021/12/25 00:41:33;;;;;;;81.00;11.90;;;;;;;5.44;100.00;96757.16;5109623;28;20623;-72
2021/12/25 00:44:00;;;;;;;88.10;13.90;;;;;;;5.71;100.00;96756.19;5111626;28;20679;-74
2021/12/25 00:46:27;;;;;;;109.00;15.50;;;;;;;5.76;100.00;96759.66;5111167;28;20622;-73
2021/12/25 00:48:53;;;;;;;77.33;12.17;;;;;;;5.71;100.00;96757.00;5108865;28;20600;-74
2021/12/25 00:51:21;;;;;;;48.97;10.37;;;;;;;5.65;100.00;96762.53;5109824;28;20581;-74
2021/12/25 00:53:48;;;;;;;80.87;12.23;;;;;;;5.69;100.00;96753.00;5118063;28;20626;-73
2021/12/25 00:56:15;;;;;;;87.40;11.90;;;;;;;5.38;100.00;96736.97;5101981;28;21201;-72
2021/12/25 00:58:42;;;;;;;76.97;11.00;;;;;;;5.38;100.00;96731.69;5095924;28;20592;-74
2021/12/25 01:01:09;;;;;;;81.87;11.20;;;;;;;5.29;100.00;96735.13;5095106;28;20609;-73
2021/12/25 01:03:36;;;;;;;90.27;12.03;;;;;;;5.40;100.00;96750.78;5097066;28;20589;-73
2021/12/25 01:06:03;;;;;;;74.23;12.00;;;;;;;5.55;100.00;96750.03;5099504;28;20605;-73
2021/12/25 01:08:31;;;;;;;60.07;11.30;;;;;;;5.50;100.00;96762.47;5099155;28;20596;-73
2021/12/25 01:10:58;;;;;;;85.63;13.13;;;;;;;5.48;100.00;96768.00;5094528;28;20609;-73
2021/12/25 01:13:28;;;;;;;66.23;11.23;;;;;;;5.35;100.00;96768.50;5095501;28;20616;-73
2021/12/25 01:16:12;;;;;;;101.10;14.03;;;;;;;5.36;100.00;96762.94;5095188;28;20676;-72
2021/12/25 01:21:59;;;;;;;84.57;14.43;;;;;;;5.50;100.00;96763.28;5071957;28;20609;-72
2021/12/25 01:29:54;;;;;;;128.07;17.47;;;;;;;5.66;100.00;96764.94;5086340;28;20605;-74
2021/12/25 01:35:33;;;;;;;91.17;16.07;;;;;;;5.55;100.00;96763.28;5098495;28;20653;-73
2021/12/25 01:38:07;;;;;;;84.30;13.87;;;;;;;5.46;100.00;96772.78;5094259;28;20601;-73
2021/12/25 01:40:54;;;;;;;87.77;14.00;;;;;;;5.40;100.00;96771.97;5093878;28;20713;-74
2021/12/25 01:48:49;;;;;;;111.23;16.70;;;;;;;5.48;100.00;96775.19;5096261;28;20679;-73
2021/12/25 01:51:16;;;;;;;98.53;15.27;;;;;;;5.50;100.00;96773.06;5097498;28;20625;-73
2021/12/25 01:53:42;;;;;;;101.20;16.47;;;;;;;5.51;100.00;96770.13;5097424;28;20612;-73
2021/12/25 01:56:11;;;;;;;74.53;15.53;;;;;;;5.67;100.00;96763.84;5091329;28;20648;-74
2021/12/25 01:58:37;;;;;;;65.70;14.30;;;;;;;5.81;100.00;96766.81;5095948;28;20593;-74
2021/12/25 02:01:07;;;;;;;117.57;16.97;;;;;;;5.79;100.00;96760.97;5093889;28;20610;-74
2021/12/25 02:03:36;;;;;;;139.87;17.20;;;;;;;5.62;100.00;96763.03;5094110;28;20593;-74
2021/12/25 02:06:03;;;;;;;92.57;15.87;;;;;;;5.52;100.00;96755.84;5098097;28;20669;-74
2021/12/25 02:08:29;;;;;;;99.63;17.80;;;;;;;5.77;100.00;96752.50;5096193;28;20616;-73
2021/12/25 02:10:57;;;;;;;72.93;14.90;;;;;;;5.91;100.00;96756.31;5092685;28;20663;-74
2021/12/25 02:13:25;;;;;;;64.33;15.67;;;;;;;5.86;100.00;96750.97;5092371;28;20663;-74
2021/12/25 02:15:54;;;;;;;84.73;16.70;;;;;;;5.95;100.00;96757.34;5097206;28;21021;-73
2021/12/25 02:18:26;;;;;;;111.07;18.03;;;;;;;5.93;100.00;96759.47;5097852;28;20612;-73
2021/12/25 02:21:02;;;;;;;95.53;16.83;;;;;;;5.87;100.00;96752.56;5094118;28;20645;-73
2021/12/25 02:23:31;;;;;;;79.13;16.77;;;;;;;5.89;100.00;96753.09;5102111;28;20642;-74
2021/12/25 02:25:58;;;;;;;66.67;14.70;;;;;;;5.90;100.00;96746.75;5090874;28;21499;-74
2021/12/25 02:28:26;;;;;;;74.60;15.83;;;;;;;5.64;100.00;96748.47;5097382;28;20592;-73
2021/12/25 02:30:56;;;;;;;100.60;14.27;;;;;;;5.74;100.00;96759.13;5091807;28;20601;-74
2021/12/25 02:33:24;;;;;;;110.57;15.27;;;;;;;5.42;100.00;96746.00;5093786;28;20593;-74
2021/12/25 02:35:51;;;;;;;52.73;12.90;;;;;;;5.45;100.00;96750.00;5097525;28;20644;-73
2021/12/25 02:38:20;;;;;;;64.13;14.27;;;;;;;5.35;100.00;96747.31;5097635;28;20596;-73
2021/12/25 02:40:46;;;;;;;113.70;16.30;;;;;;;5.55;100.00;96752.69;5093456;28;20585;-73
2021/12/25 02:43:13;;;;;;;94.17;15.77;;;;;;;5.57;100.00;96749.78;5093648;28;20999;-73
2021/12/25 02:45:40;;;;;;;154.60;20.50;;;;;;;5.63;100.00;96752.19;5094956;28;20644;-74
2021/12/25 02:48:10;;;;;;;136.80;20.30;;;;;;;5.89;100.00;96758.41;5096143;28;20634;-74
2021/12/25 02:50:38;;;;;;;116.50;19.20;;;;;;;6.03;100.00;96756.06;5095024;28;20596;-73
2021/12/25 02:53:07;;;;;;;91.83;17.93;;;;;;;6.09;100.00;96761.09;5098206;28;20974;-73
2021/12/25 02:55:36;;;;;;;145.77;19.87;;;;;;;6.04;100.00;96761.09;5087707;28;20649;-74
2021/12/25 02:58:03;;;;;;;80.03;18.30;;;;;;;6.15;100.00;96760.06;5094885;28;20613;-73
2021/12/25 03:00:33;;;;;;;96.90;19.80;;;;;;;6.15;100.00;96757.41;5094128;28;20646;-73
2021/12/25 03:03:03;;;;;;;81.13;16.90;;;;;;;6.04;100.00;96757.63;5091271;28;20606;-73
2021/12/25 03:05:29;;;;;;;145.83;20.90;;;;;;;6.03;100.00;96748.91;5092639;28;20610;-73
2021/12/25 03:07:56;;;;;;;97.93;20.00;;;;;;;5.97;100.00;96753.38;5094667;28;20635;-73
2021/12/25 03:10:23;;;;;;;128.27;18.93;;;;;;;5.98;100.00;96768.22;5094595;28;20596;-73
2021/12/25 03:12:54;;;;;;;80.73;18.43;;;;;;;5.92;100.00;96763.16;5093476;28;21306;-74
2021/12/25 03:15:29;;;;;;;80.00;17.47;;;;;;;5.82;100.00;96774.50;5091455;28;20653;-74
2021/12/25 03:17:56;;;;;;;82.30;18.47;;;;;;;5.81;100.00;96761.53;5092566;28;20606;-74
2021/12/25 03:20:24;;;;;;;102.80;18.03;;;;;;;5.86;100.00;96761.56;5092284;28;20601;-74
2021/12/25 03:22:51;;;;;;;129.37;19.07;;;;;;;5.89;100.00;96758.41;5100348;28;20593;-73
2021/12/25 03:25:18;;;;;;;117.63;18.70;;;;;;;5.89;100.00;96748.59;5089941;28;20597;-73
2021/12/25 03:27:48;;;;;;;138.53;19.80;;;;;;;5.94;100.00;96753.13;5095571;28;20601;-73
2021/12/25 03:30:17;;;;;;;137.93;22.37;;;;;;;5.87;100.00;96755.22;5095436;28;20600;-74
2021/12/25 03:32:45;;;;;;;62.00;15.13;;;;;;;5.90;100.00;96752.06;5092347;28;20664;-73
2021/12/25 03:35:12;;;;;;;141.67;20.07;;;;;;;5.79;100.00;96742.44;5090456;28;20589;-74
2021/12/25 03:37:38;;;;;;;121.70;19.30;;;;;;;5.80;100.00;96744.03;5092509;28;20605;-74
2021/12/25 03:40:06;;;;;;;98.30;19.60;;;;;;;5.82;100.00;96747.22;5095596;28;20597;-73
2021/12/25 03:42:33;;;;;;;68.60;15.97;;;;;;;5.85;100.00;96750.16;5093642;28;20632;-74
2021/12/25 03:44:59;;;;;;;77.67;17.93;;;;;;;5.78;100.00;96746.16;5092865;28;20629;-73
2021/12/25 03:47:32;;;;;;;89.37;17.73;;;;;;;5.79;100.00;96745.88;5093260;28;20641;-73
2021/12/25 03:58:15;;;;;;;105.27;21.40;;;;;;;5.69;100.00;96734.47;5092589;28;20712;-74
2021/12/25 04:00:44;;;;;;;119.37;21.30;;;;;;;5.77;100.00;96733.97;5094829;28;20651;-74
2021/12/25 04:03:20;;;;;;;110.17;20.20;;;;;;;5.73;100.00;96738.19;5096132;28;20605;-74
2021/12/25 04:05:48;;;;;;;108.43;18.60;;;;;;;5.66;100.00;96737.66;5093671;28;20609;-74
2021/12/25 04:08:19;;;;;;;85.93;18.50;;;;;;;5.62;100.00;96732.06;5091418;28;20598;-74
2021/12/25 04:10:50;;;;;;;147.67;21.60;;;;;;;5.67;100.00;96733.91;5095028;28;20627;-73
2021/12/25 04:13:18;;;;;;;160.77;23.40;;;;;;;5.64;100.00;96729.13;5094634;28;20648;-73
2021/12/25 04:15:45;;;;;;;95.40;18.80;;;;;;;5.68;100.00;96731.03;5092307;28;21088;-73
2021/12/25 04:18:13;;;;;;;76.50;18.23;;;;;;;5.70;100.00;96728.09;5092506;28;20619;-73
2021/12/25 04:20:41;;;;;;;107.07;22.30;;;;;;;5.63;100.00;96725.69;5094288;28;20863;-73
2021/12/25 04:23:11;;;;;;;112.83;23.03;;;;;;;5.67;100.00;96724.13;5099222;28;20592;-73
2021/12/25 04:25:38;;;;;;;121.80;22.43;;;;;;;5.66;100.00;96721.75;5087569;28;21188;-74
2021/12/25 04:28:12;;;;;;;110.30;20.97;;;;;;;5.70;100.00;96731.56;5093799;28;20721;-73
2021/12/25 04:30:57;;;;;;;101.73;21.87;;;;;;;5.65;100.00;96730.75;5091800;28;20609;-74
2021/12/25 04:50:25;;;;;;;100.37;18.93;;;;;;;5.68;100.00;96724.94;5096747;28;20821;-74
2021/12/25 05:04:03;;;;;;;89.97;18.90;;;;;;;5.60;100.00;96722.78;5095412;28;20624;-74
2021/12/25 05:06:31;;;;;;;128.47;21.37;;;;;;;5.62;100.00;96720.66;5094373;28;20653;-74
2021/12/25 05:08:58;;;;;;;160.00;24.33;;;;;;;5.63;100.00;96724.91;5098437;28;20619;-74
2021/12/25 05:11:24;;;;;;;101.83;18.97;;;;;;;5.58;100.00;96722.25;5098622;28;20605;-74
2021/12/25 05:13:51;;;;;;;106.60;22.07;;;;;;;5.61;100.00;96730.47;5093951;28;20659;-74
2021/12/25 05:16:18;;;;;;;97.17;20.20;;;;;;;5.62;100.00;96724.13;5093428;28;20669;-73
2021/12/25 05:18:46;;;;;;;108.93;23.80;;;;;;;5.58;100.00;96723.03;5096156;28;21217;-74
2021/12/25 05:21:13;;;;;;;83.47;20.93;;;;;;;5.53;100.00;96711.63;5098539;28;20740;-73
2021/12/25 05:23:41;;;;;;;129.57;22.53;;;;;;;5.62;100.00;96725.97;5098547;28;20688;-73
2021/12/25 05:26:08;;;;;;;103.77;21.40;;;;;;;5.65;100.00;96714.84;5099815;28;20620;-73
2021/12/25 05:28:40;;;;;;;132.47;22.20;;;;;;;5.57;100.00;96723.31;5101630;28;21101;-73
2021/12/25 05:31:07;;;;;;;88.37;18.40;;;;;;;5.66;100.00;96714.59;5095247;28;20713;-74
2021/12/25 05:33:34;;;;;;;95.00;19.27;;;;;;;5.55;100.00;96718.25;5096685;28;21052;-73
2021/12/25 05:36:01;;;;;;;81.67;19.60;;;;;;;5.41;100.00;96717.97;5098879;28;20643;-73
2021/12/25 05:38:27;;;;;;;97.40;18.87;;;;;;;5.42;100.00;96719.53;5098903;28;21235;-74
2021/12/25 05:40:55;;;;;;;99.13;22.20;;;;;;;5.64;100.00;96713.25;5095327;28;20608;-73
2021/12/25 05:43:22;;;;;;;79.63;19.23;;;;;;;5.68;100.00;96720.44;5098923;28;20617;-74
2021/12/25 05:45:49;;;;;;;109.23;20.50;;;;;;;5.75;100.00;96714.88;5102646;28;20643;-74
2021/12/25 05:48:16;;;;;;;126.27;22.73;;;;;;;5.71;100.00;96709.31;5093487;28;20614;-74
2021/12/25 05:50:43;;;;;;;116.97;22.10;;;;;;;5.75;100.00;96702.44;5095678;28;20620;-74
2021/12/25 05:53:09;;;;;;;73.83;17.87;;;;;;;5.72;100.00;96710.13;5100988;28;21353;-74
2021/12/25 05:55:36;;;;;;;118.80;23.00;;;;;;;5.66;100.00;96701.38;5088933;28;20605;-74
2021/12/25 05:58:07;;;;;;;105.73;21.97;;;;;;;5.66;100.00;96705.88;5097173;28;20629;-74
2021/12/25 06:00:34;;;;;;;98.10;21.23;;;;;;;5.59;100.00;96705.31;5096386;28;20639;-74
2021/12/25 06:03:03;;;;;;;101.33;22.83;;;;;;;5.60;100.00;96697.09;5093773;28;21270;-74
2021/12/25 06:05:29;;;;;;;102.27;19.13;;;;;;;5.64;100.00;96702.66;5094172;28;20688;-74
2021/12/25 06:07:56;;;;;;;98.53;22.07;;;;;;;5.63;100.00;96693.16;5097645;28;20592;-74
2021/12/25 06:10:23;;;;;;;76.97;18.63;;;;;;;5.58;100.00;96690.47;5096276;28;20650;-73
2021/12/25 06:12:53;;;;;;;96.10;19.07;;;;;;;5.49;100.00;96694.66;5092813;28;20606;-73
2021/12/25 06:15:22;;;;;;;84.57;18.30;;;;;;;5.52;100.00;96696.78;5092877;28;20631;-73
2021/12/25 06:17:49;;;;;;;120.50;21.47;;;;;;;5.50;100.00;96691.78;5096879;28;20686;-73
2021/12/25 06:20:16;;;;;;;113.13;20.10;;;;;;;5.45;100.00;96697.84;5096113;28;21133;-73
2021/12/25 06:22:42;;;;;;;103.77;18.70;;;;;;;5.42;100.00;96701.00;5096801;28;20596;-74
2021/12/25 06:25:10;;;;;;;103.70;18.23;;;;;;;5.39;100.00;96700.72;5091175;28;20601;-74
2021/12/25 06:27:38;;;;;;;83.77;16.13;;;;;;;5.42;100.00;96705.50;5093370;28;20688;-74
2021/12/25 06:30:07;;;;;;;98.70;18.37;;;;;;;5.42;100.00;96706.31;5095601;28;20609;-73
2021/12/25 06:32:35;;;;;;;98.57;16.07;;;;;;;5.44;100.00;96711.34;5094796;28;20627;-74
2021/12/25 06:35:01;;;;;;;63.97;15.70;;;;;;;5.40;100.00;96711.06;5092188;28;20602;-74
2021/12/25 06:37:28;;;;;;;55.53;12.13;;;;;;;5.39;100.00;96712.13;5093496;28;20644;-73
2021/12/25 06:39:55;;;;;;;80.20;15.10;;;;;;;5.45;100.00;96708.44;5095422;28;20662;-74
2021/12/25 06:42:21;;;;;;;106.87;19.07;;;;;;;5.44;100.00;96721.94;5095676;28;20604;-74
2021/12/25 06:44:48;;;;;;;146.83;16.80;;;;;;;5.42;100.00;96710.78;5093547;28;20629;-74
2021/12/25 06:47:15;;;;;;;74.20;12.30;;;;;;;5.44;100.00;96711.34;5091920;28;20590;-74
2021/12/25 06:49:44;;;;;;;70.47;10.60;;;;;;;5.39;100.00;96712.13;5095704;28;20594;-73
2021/12/25 06:52:10;;;;;;;87.67;13.37;;;;;;;5.38;100.00;96701.81;5095632;28;20961;-74
2021/12/25 06:54:37;;;;;;;74.90;10.17;;;;;;;5.28;100.00;96707.84;5093633;28;20720;-73
2021/12/25 06:57:04;;;;;;;94.73;10.93;;;;;;;5.25;100.00;96708.34;5093063;28;20644;-73
2021/12/25 06:59:31;;;;;;;52.50;9.80;;;;;;;5.27;100.00;96714.19;5091818;28;20618;-74
2021/12/25 07:01:58;;;;;;;109.67;12.30;;;;;;;5.25;100.00;96713.66;5094815;28;21045;-74
2021/12/25 07:04:25;;;;;;;58.43;10.67;;;;;;;5.24;100.00;96720.00;5096242;28;20604;-74
2021/12/25 07:06:53;;;;;;;75.87;11.47;;;;;;;5.30;100.00;96721.59;5093020;28;20665;-73
2021/12/25 07:09:20;;;;;;;87.20;12.63;;;;;;;5.36;100.00;96723.22;5091287;28;21082;-72
2021/12/25 07:11:47;;;;;;;66.70;9.87;;;;;;;5.33;100.00;96729.03;5096278;28;20605;-73
2021/12/25 07:14:14;;;;;;;62.87;11.03;;;;;;;5.41;100.00;96739.16;5095641;28;20619;-73
2021/12/25 07:16:42;;;;;;;76.23;12.83;;;;;;;5.43;100.00;96737.03;5093771;28;20651;-73
2021/12/25 07:19:12;;;;;;;98.40;11.70;;;;;;;5.43;100.00;96738.88;5091972;28;20605;-74
2021/12/25 07:21:39;;;;;;;96.77;12.67;;;;;;;5.36;100.00;96731.16;5094821;28;20617;-74
2021/12/25 07:24:09;;;;;;;93.90;13.20;;;;;;;5.36;100.00;96728.50;5101456;28;20644;-74
2021/12/25 07:26:37;;;;;;;103.80;14.83;;;;;;;5.31;100.00;96719.75;5099610;28;20628;-74
2021/12/25 07:29:03;;;;;;;86.33;11.63;;;;;;;5.27;100.00;96723.97;5100866;28;21023;-73
2021/12/25 07:31:30;;;;;;;81.33;12.90;;;;;;;5.36;100.00;96717.94;5094512;28;20601;-73
2021/12/25 07:33:57;;;;;;;62.83;11.10;;;;;;;5.35;100.00;96715.56;5100805;28;20666;-73
2021/12/25 07:36:24;;;;;;;77.23;12.50;;;;;;;5.34;100.00;96714.75;5100235;28;20708;-73
2021/12/25 07:38:52;;;;;;;77.73;11.60;;;;;;;5.39;100.00;96714.75;5098845;28;20665;-73
2021/12/25 07:41:20;;;;;;;48.00;9.90;;;;;;;5.41;100.00;96725.91;5101321;28;20646;-75
2021/12/25 07:43:47;;;;;;;97.33;12.73;;;;;;;5.40;100.00;96718.22;5099695;28;20608;-73
2021/12/25 07:46:14;;;;;;;82.23;12.57;;;;;;;5.47;100.00;96717.97;5095405;28;20659;-73
2021/12/25 07:48:42;;;;;;;50.80;11.37;;;;;;;5.36;100.00;96725.88;5093067;28;20670;-73
2021/12/25 07:51:08;;;;;;;54.37;10.73;;;;;;;5.31;100.00;96720.56;5094540;28;20596;-73
2021/12/25 07:53:35;;;;;;;74.20;10.97;;;;;;;5.36;100.00;96725.88;5096554;28;20600;-73
2021/12/25 07:56:02;;;;;;;77.30;11.70;;;;;;;5.35;100.00;96723.50;5088585;28;20880;-73
2021/12/25 07:58:30;;;;;;;141.40;15.10;;;;;;;5.38;100.00;96718.44;5093987;28;20670;-73
2021/12/25 08:00:57;;;;;;;60.57;10.40;;;;;;;5.42;100.00;96719.53;5091019;28;20593;-73
2021/12/25 08:03:23;;;;;;;79.03;9.80;;;;;;;5.40;100.00;96726.16;5090821;28;20612;-73
2021/12/25 08:05:51;;;;;;;69.47;9.33;;;;;;;5.36;100.00;96723.22;5093969;28;20601;-73
2021/12/25 08:08:17;;;;;;;48.47;8.83;;;;;;;5.31;100.00;96720.56;5098201;28;20621;-74
2021/12/25 08:10:45;;;;;;;51.93;8.40;;;;;;;5.35;100.00;96721.63;5097233;28;20585;-74
2021/12/25 08:13:13;;;;;;;102.97;12.53;;;;;;;5.31;100.00;96720.56;5096233;28;20601;-74
2021/12/25 08:15:42;;;;;;;104.20;11.63;;;;;;;5.30;100.00;96718.97;5097874;28;20646;-74
2021/12/25 08:18:09;;;;;;;54.93;8.67;;;;;;;5.30;100.00;96720.81;5099427;28;20697;-74
2021/12/25 08:20:37;;;;;;;66.13;10.43;;;;;;;5.33;100.00;96721.09;5098316;28;20684;-74
2021/12/25 08:23:04;;;;;;;101.47;12.07;;;;;;;5.41;100.00;96719.81;5100163;28;20600;-74
2021/12/25 08:25:31;;;;;;;66.87;9.97;;;;;;;5.39;100.00;96721.91;5095472;28;20597;-74
2021/12/25 08:27:58;;;;;;;84.30;10.77;;;;;;;5.39;100.00;96725.34;5097994;28;20634;-74
2021/12/25 08:30:27;;;;;;;91.30;11.93;;;;;;;5.38;100.00;96723.75;5097733;28;20709;-73
2021/12/25 08:32:57;;;;;;;83.20;10.90;;;;;;;5.39;100.00;96729.84;5087013;28;20696;-74
2021/12/25 08:35:25;;;;;;;58.37;10.80;;;;;;;5.49;100.00;96723.78;5087045;28;20624;-72
2021/12/25 08:37:52;;;;;;;102.47;13.47;;;;;;;5.43;100.00;96729.09;5119629;28;20728;-72
2021/12/25 08:40:19;;;;;;;35.70;9.13;;;;;;;5.42;100.00;96732.78;5085778;28;20635;-73
2021/12/25 08:42:51;;;;;;;63.10;10.90;;;;;;;5.54;100.00;96734.44;5094049;28;20594;-73
2021/12/25 08:45:39;;;;;;;71.30;10.97;;;;;;;5.58;100.00;96730.19;5093923;28;20632;-73
2021/12/25 08:48:10;;;;;;;84.40;12.27;;;;;;;5.53;100.00;96728.31;5094224;28;20621;-74
2021/12/25 08:50:38;;;;;;;71.33;11.43;;;;;;;5.54;100.00;96731.78;5097398;28;20605;-74
2021/12/25 08:53:05;;;;;;;33.63;8.40;;;;;;;5.60;100.00;96738.69;5103308;28;20817;-74
2021/12/25 08:55:32;;;;;;;52.17;10.17;;;;;;;5.55;100.00;96744.75;5091556;28;20597;-74
2021/12/25 08:57:59;;;;;;;68.23;10.53;;;;;;;5.62;100.00;96732.06;5099311;28;21055;-72
2021/12/25 09:00:26;;;;;;;100.97;11.57;;;;;;;5.56;100.00;96737.59;5098737;28;20608;-74
2021/12/25 09:02:53;;;;;;;56.10;9.77;;;;;;;5.58;100.00;96738.94;5096071;28;20597;-74
2021/12/25 09:05:21;;;;;;;47.77;9.90;;;;;;;5.66;100.00;96745.59;5094366;28;20643;-74
2021/12/25 09:07:47;;;;;;;64.40;10.07;;;;;;;5.70;100.00;96750.09;5096750;28;20601;-73
2021/12/25 09:10:15;;;;;;;45.30;9.30;;;;;;;5.53;100.00;96749.50;5097412;28;20627;-73
2021/12/25 09:12:43;;;;;;;73.90;11.77;;;;;;;5.69;100.00;96751.16;5095550;28;20600;-73
2021/12/25 09:15:11;;;;;;;59.37;10.23;;;;;;;5.69;100.00;96753.00;5095286;28;20625;-73
2021/12/25 09:17:38;;;;;;;69.73;9.30;;;;;;;5.38;100.00;96752.88;5095960;28;20660;-72
2021/12/25 09:20:06;;;;;;;49.23;8.37;;;;;;;5.25;100.00;96752.56;5098572;28;20667;-74
2021/12/25 09:22:35;;;;;;;74.33;9.47;;;;;;;5.34;100.00;96751.00;5097090;28;20627;-73
2021/12/25 09:25:02;;;;;;;55.23;7.17;;;;;;;5.50;100.00;96755.31;5107864;28;20593;-73
2021/12/25 09:27:29;;;;;;;73.33;9.63;;;;;;;5.45;100.00;96757.94;5094653;28;20609;-74
2021/12/25 09:29:55;;;;;;;70.60;8.57;;;;;;;5.40;100.00;96765.88;5096588;28;20616;-73
2021/12/25 09:32:22;;;;;;;102.73;11.00;;;;;;;5.67;100.00;96760.41;5096464;28;20597;-73
2021/12/25 09:34:49;;;;;;;82.27;10.30;;;;;;;5.59;100.00;96759.06;5094676;28;20640;-74
2021/12/25 09:37:15;;;;;;;69.00;9.00;;;;;;;5.53;100.00;96759.31;5092821;28;20653;-74
2021/12/25 09:39:43;;;;;;;53.70;8.50;;;;;;;5.52;100.00;96747.09;5096495;28;20585;-74
2021/12/25 09:42:10;;;;;;;59.63;8.07;;;;;;;5.86;100.00;96758.91;5098141;28;20657;-75
2021/12/25 09:44:37;;;;;;;47.80;6.90;;;;;;;5.48;100.00;96761.94;5096538;28;20697;-74
2021/12/25 09:47:05;;;;;;;87.50;9.27;;;;;;;5.69;100.00;96774.19;5094692;28;20613;-74
2021/12/25 09:49:32;;;;;;;100.20;9.40;;;;;;;5.91;100.00;96777.50;5093404;28;20605;-75
2021/12/25 09:51:59;;;;;;;74.63;7.53;;;;;;;5.87;100.00;96776.41;5097687;28;20619;-75
2021/12/25 09:54:28;;;;;;;90.03;8.13;;;;;;;5.41;100.00;96770.91;5097971;28;20798;-73
2021/12/25 09:56:58;;;;;;;44.63;5.90;;;;;;;5.41;100.00;96760.31;5092950;28;20615;-74
2021/12/25 09:59:26;;;;;;;83.20;8.13;;;;;;;5.57;100.00;96766.44;5092941;28;20616;-74
2021/12/25 10:01:54;;;;;;;39.47;6.20;;;;;;;5.67;100.00;96765.69;5097792;28;20661;-74
2021/12/25 10:04:33;;;;;;;75.40;6.67;;;;;;;5.24;100.00;96774.78;5097469;28;20608;-73
2021/12/25 10:07:19;;;;;;;42.30;5.70;;;;;;;5.50;100.00;96768.56;5094243;28;20616;-75
2021/12/25 10:09:59;;;;;;;58.10;6.37;;;;;;;5.18;100.00;96760.72;5096661;28;20609;-74
2021/12/25 10:12:37;;;;;;;84.73;8.30;;;;;;;5.24;100.00;96759.69;5097405;28;20608;-73
2021/12/25 10:15:05;;;;;;;59.00;7.27;;;;;;;5.27;100.00;96761.81;5096111;28;20612;-74
2021/12/25 10:17:32;;;;;;;97.03;7.53;;;;;;;5.17;100.00;96759.13;5092963;28;20649;-73
2021/12/25 10:20:08;;;;;;;94.47;9.27;;;;;;;5.22;100.00;96761.00;5097059;28;20601;-73
2021/12/25 10:22:53;;;;;;;86.33;7.80;;;;;;;5.20;100.00;96760.47;5096375;28;20694;-74
2021/12/25 10:25:20;;;;;;;31.27;5.40;;;;;;;5.17;100.00;96764.41;5088826;28;20637;-74
2021/12/25 10:27:50;;;;;;;61.67;7.17;;;;;;;5.11;100.00;96769.91;5096459;28;20631;-72
2021/12/25 10:30:17;;;;;;;67.70;7.27;;;;;;;5.00;100.00;96765.63;5096252;28;20604;-74
2021/12/25 10:32:44;;;;;;;95.30;10.43;;;;;;;4.97;100.00;96755.56;5093410;28;20601;-74
2021/12/25 10:35:17;;;;;;;94.73;8.37;;;;;;;4.88;100.00;96769.28;5091793;28;20590;-74
2021/12/25 10:37:44;;;;;;;49.50;5.53;;;;;;;4.83;100.00;96766.56;5095183;28;20703;-73
2021/12/25 10:40:25;;;;;;;59.80;5.70;;;;;;;4.85;100.00;96769.78;5095652;28;20635;-74
2021/12/25 10:42:55;;;;;;;42.47;4.27;;;;;;;4.82;100.00;96761.56;5092134;28;20602;-73
2021/12/25 10:45:25;;;;;;;71.53;6.87;;;;;;;4.77;100.00;96762.31;5093569;28;20621;-72
2021/12/25 10:48:08;;;;;;;30.87;3.93;;;;;;;4.81;100.00;96762.59;5095482;28;20608;-73
2021/12/25 10:50:39;;;;;;;93.87;7.67;;;;;;;4.74;100.00;96754.06;5094515;28;20596;-74
2021/12/25 10:53:25;;;;;;;32.00;3.87;;;;;;;4.72;100.00;96764.13;5098458;28;20638;-74
2021/12/25 10:55:52;;;;;;;53.20;5.10;;;;;;;4.65;100.00;96755.59;5086786;28;20611;-74
2021/12/25 10:58:24;;;;;;;61.87;5.40;;;;;;;4.60;100.00;96758.22;5096463;28;20644;-74
2021/12/25 11:00:54;;;;;;;82.83;6.43;;;;;;;4.53;100.00;96761.06;5093470;28;20736;-73
2021/12/25 11:03:28;;;;;;;69.43;5.93;;;;;;;4.51;100.00;96767.66;5091286;28;20648;-74
2021/12/25 11:05:55;;;;;;;55.10;4.20;;;;;;;4.56;100.00;96767.69;5091395;28;20652;-74
2021/12/25 11:08:23;;;;;;;64.30;5.30;;;;;;;4.51;100.00;96767.66;5092809;28;20612;-73
2021/12/25 11:10:53;;;;;;;45.10;4.47;;;;;;;4.52;100.00;96764.75;5094807;28;20612;-73
2021/12/25 11:13:24;;;;;;;46.20;4.37;;;;;;;4.51;100.00;96757.09;5095002;28;20620;-73
2021/12/25 11:15:55;;;;;;;80.97;6.60;;;;;;;4.42;100.00;96753.31;5091646;28;20613;-73
2021/12/25 11:18:22;;;;;;;48.13;4.27;;;;;;;4.42;100.00;96753.31;5092636;28;20660;-74
2021/12/25 11:20:49;;;;;;;93.90;7.20;;;;;;;4.39;100.00;96764.38;5095505;28;20623;-74
2021/12/25 11:23:17;;;;;;;42.77;3.83;;;;;;;4.34;100.00;96744.78;5098838;28;20637;-75
2021/12/25 11:25:45;;;;;;;48.20;3.70;;;;;;;4.33;100.00;96740.53;5087423;28;20634;-74
2021/12/25 11:28:14;;;;;;;38.57;3.73;;;;;;;4.22;100.00;96760.00;5097202;28;20604;-74
2021/12/25 11:30:44;;;;;;;41.27;3.70;;;;;;;4.34;100.00;96759.84;5094212;28;20715;-74
2021/12/25 11:33:12;;;;;;;38.40;3.67;;;;;;;4.40;100.00;96755.38;5093044;28;20590;-75
2021/12/25 11:35:41;;;;;;;71.77;5.33;;;;;;;4.42;100.00;96766.53;5093137;28;20597;-75
2021/12/25 11:38:10;;;;;;;47.53;3.93;;;;;;;4.33;100.00;96764.31;5097802;28;20674;-74
2021/12/25 11:40:43;;;;;;;46.67;4.63;;;;;;;4.33;100.00;96763.53;5095533;28;20895;-73
2021/12/25 11:43:09;;;;;;;45.23;4.27;;;;;;;4.37;100.00;96761.97;5093024;28;20636;-74
2021/12/25 11:45:40;;;;;;;37.43;3.80;;;;;;;4.32;100.00;96757.47;5093542;28;20629;-73
2021/12/25 11:48:16;;;;;;;48.37;4.23;;;;;;;4.23;100.00;96755.53;5095662;28;20635;-74
2021/12/25 11:50:47;;;;;;;40.77;3.47;;;;;;;4.20;100.00;96748.09;5093660;28;20607;-74
2021/12/25 11:53:21;;;;;;;57.37;5.17;;;;;;;4.20;100.00;96748.91;5099623;28;20712;-74
2021/12/25 11:58:48;;;;;;;35.07;3.13;;;;;;;4.22;100.00;96759.19;5093219;28;20674;-74
2021/12/25 12:01:23;;;;;;;72.93;5.27;;;;;;;4.30;100.00;96750.84;5091321;28;20693;-73
2021/12/25 12:03:54;;;;;;;77.37;5.93;;;;;;;4.31;100.00;96752.41;5095528;28;21042;-73
2021/12/25 12:06:37;;;;;;;35.20;3.40;;;;;;;4.29;100.00;96749.22;5094990;28;20615;-74
2021/12/25 12:09:10;;;;;;;56.10;4.40;;;;;;;4.22;100.00;96760.00;5083835;28;20617;-73
2021/12/25 12:11:40;;;;;;;51.90;4.30;;;;;;;4.30;100.00;96754.25;5082668;28;20602;-74
2021/12/25 12:14:20;;;;;;;24.90;2.43;;;;;;;4.33;100.00;96759.03;5092080;28;21555;-73
2021/12/25 12:16:50;;;;;;;55.50;5.23;;;;;;;4.30;100.00;96756.91;5084321;28;20678;-73
2021/12/25 12:19:45;;;;;;;63.53;4.80;;;;;;;4.27;100.00;96767.97;5082320;28;20665;-73
2021/12/25 12:22:42;;;;;;;26.80;2.37;;;;;;;4.28;100.00;96766.13;5092314;28;20610;-74